Time;durP1;ratioP1;P1;durP2;ratioP2;P2;SDS_P1;SDS_P2;PMS_P1;PMS_P2;Temp;Humidity;BMP_temperature;BMP_pressure;BME280_temperature;BME280_humidity;BME280_pressure;Samples;Min_cycle;Max_cycle;Signal;HPM_P1;HPM_P2
2023/05/27 00:00:12;;;;;;;17.92;5.15;;;;;;;9.03;80.65;100361.50;5096849;28;20486;-63
2023/05/27 00:02:39;;;;;;;17.75;4.40;;;;;;;9.01;80.27;100358.22;5102282;28;20541;-63
2023/05/27 00:05:06;;;;;;;17.75;5.22;;;;;;;8.99;79.97;100354.13;5102163;28;20139;-63
2023/05/27 00:07:35;;;;;;;17.08;4.47;;;;;;;9.01;79.91;100352.03;5099479;28;20529;-63
2023/05/27 00:10:02;;;;;;;17.35;4.93;;;;;;;9.11;79.80;100354.31;5098775;28;20055;-63
2023/05/27 00:12:29;;;;;;;20.92;5.82;;;;;;;9.08;79.50;100352.88;5099454;28;20059;-63
2023/05/27 00:14:59;;;;;;;21.25;5.65;;;;;;;9.07;79.95;100356.56;5105253;28;20039;-63
2023/05/27 00:17:26;;;;;;;17.73;5.18;;;;;;;9.10;79.71;100350.00;5081102;28;20490;-63
2023/05/27 00:19:54;;;;;;;22.05;5.13;;;;;;;9.05;80.07;100358.63;5099032;28;20055;-63
2023/05/27 00:22:22;;;;;;;13.10;4.72;;;;;;;8.91;81.61;100352.47;5100936;28;20066;-63
2023/05/27 00:24:51;;;;;;;19.05;5.28;;;;;;;9.01;84.38;100357.38;5093229;28;20047;-63
2023/05/27 00:27:18;;;;;;;21.05;5.10;;;;;;;8.82;83.76;100359.84;5102586;28;20508;-65
2023/05/27 00:29:45;;;;;;;19.02;5.32;;;;;;;8.61;84.51;100358.16;5101983;28;20044;-63
2023/05/27 00:32:12;;;;;;;15.88;5.18;;;;;;;8.56;85.38;100367.78;5103897;28;20665;-63
2023/05/27 00:34:40;;;;;;;16.52;5.00;;;;;;;8.65;83.65;100363.91;5080932;28;20048;-63
2023/05/27 00:37:08;;;;;;;19.67;4.95;;;;;;;8.53;84.52;100362.84;5103332;28;20043;-63
2023/05/27 00:39:35;;;;;;;16.77;4.90;;;;;;;8.61;84.73;100366.19;5095504;28;20516;-63
2023/05/27 00:42:03;;;;;;;15.48;4.63;;;;;;;8.64;84.05;100356.94;5100828;28;20096;-64
2023/05/27 00:44:31;;;;;;;14.93;4.93;;;;;;;8.54;83.62;100359.19;5074717;28;20064;-63
2023/05/27 00:46:57;;;;;;;15.73;5.10;;;;;;;8.45;83.87;100352.34;5102425;28;20406;-63
2023/05/27 00:49:26;;;;;;;15.48;5.10;;;;;;;8.71;85.88;100355.09;5082705;28;20397;-63
2023/05/27 00:51:53;;;;;;;17.95;4.63;;;;;;;8.57;83.58;100358.75;5101926;28;20043;-62
2023/05/27 00:54:20;;;;;;;19.83;4.80;;;;;;;8.69;87.60;100365.16;5096207;28;20044;-62
2023/05/27 00:56:47;;;;;;;13.00;4.82;;;;;;;8.63;86.58;100357.94;5080717;28;20050;-62
2023/05/27 00:59:16;;;;;;;15.55;4.93;;;;;;;8.36;85.42;100349.84;5080177;28;20486;-63
2023/05/27 01:01:43;;;;;;;15.13;5.13;;;;;;;8.23;85.89;100349.78;5089762;28;20048;-62
2023/05/27 01:04:13;;;;;;;14.25;4.93;;;;;;;8.16;85.69;100344.41;5095306;28;20048;-62
2023/05/27 01:06:44;;;;;;;20.15;4.97;;;;;;;8.36;84.01;100349.00;5100823;28;20096;-62
2023/05/27 01:09:14;;;;;;;12.82;4.80;;;;;;;8.26;84.37;100344.03;5102714;28;20051;-63
2023/05/27 01:11:44;;;;;;;17.63;4.60;;;;;;;8.29;85.26;100353.50;5093695;28;20131;-62
2023/05/27 01:14:12;;;;;;;17.35;6.10;;;;;;;8.21;85.34;100352.66;5086208;28;20051;-62
2023/05/27 01:16:43;;;;;;;15.48;4.80;;;;;;;8.27;86.93;100345.69;5104500;28;20040;-62
2023/05/27 01:19:14;;;;;;;20.65;5.00;;;;;;;8.18;85.93;100341.53;5099807;28;20038;-62
2023/05/27 01:21:44;;;;;;;16.23;4.70;;;;;;;8.03;86.32;100343.53;5077498;28;20541;-62
2023/05/27 01:24:13;;;;;;;18.58;5.57;;;;;;;8.13;86.22;100338.63;5077636;28;20048;-63
2023/05/27 01:26:42;;;;;;;17.33;5.10;;;;;;;8.07;87.92;100340.25;5066362;28;20051;-62
2023/05/27 01:29:12;;;;;;;21.58;5.45;;;;;;;7.95;88.42;100347.19;5087036;28;20521;-63
2023/05/27 01:31:43;;;;;;;16.42;4.80;;;;;;;8.11;88.53;100335.34;5106091;28;20795;-63
2023/05/27 01:34:11;;;;;;;12.63;4.22;;;;;;;7.98;87.04;100334.25;5082776;28;20043;-62
2023/05/27 01:36:41;;;;;;;17.70;4.80;;;;;;;8.24;85.49;100329.22;5082245;28;20111;-63
2023/05/27 01:39:09;;;;;;;17.50;4.95;;;;;;;8.25;86.25;100325.53;5095327;28;20059;-63
2023/05/27 01:41:38;;;;;;;11.68;4.88;;;;;;;7.96;89.64;100328.31;5085982;28;20089;-63
2023/05/27 01:44:06;;;;;;;12.75;5.22;;;;;;;7.66;91.16;100321.56;5076972;28;20078;-63
2023/05/27 01:46:34;;;;;;;19.02;4.95;;;;;;;7.47;92.70;100320.44;5104736;28;20044;-63
2023/05/27 01:49:01;;;;;;;15.60;5.32;;;;;;;7.65;91.84;100318.09;5081433;28;20131;-63
2023/05/27 01:51:28;;;;;;;15.48;5.18;;;;;;;7.40;94.85;100316.91;5103334;28;20126;-63
2023/05/27 01:53:55;;;;;;;13.55;5.07;;;;;;;7.37;93.53;100312.78;5099265;28;20122;-63
2023/05/27 01:56:22;;;;;;;17.15;5.55;;;;;;;7.51;94.63;100317.19;5095797;28;20127;-63
2023/05/27 01:58:51;;;;;;;14.32;5.55;;;;;;;7.34;93.56;100319.34;5078964;28;20078;-63
2023/05/27 02:01:18;;;;;;;18.90;5.30;;;;;;;7.28;94.36;100319.28;5084684;28;20094;-63
2023/05/27 02:03:45;;;;;;;14.70;5.47;;;;;;;7.19;94.49;100309.75;5080294;28;20044;-63
2023/05/27 02:06:15;;;;;;;16.73;5.60;;;;;;;7.53;93.92;100317.78;5104478;28;21112;-64
2023/05/27 02:08:42;;;;;;;17.90;5.57;;;;;;;7.61;93.30;100310.66;5079462;28;20555;-64
2023/05/27 02:11:10;;;;;;;14.68;4.68;;;;;;;7.55;93.99;100310.44;5079306;28;20048;-67
2023/05/27 02:13:37;;;;;;;20.30;5.70;;;;;;;7.43;92.70;100305.84;5093351;28;20059;-64
2023/05/27 02:16:06;;;;;;;17.75;5.93;;;;;;;7.56;92.99;100309.44;5099281;28;20050;-63
2023/05/27 02:18:34;;;;;;;14.25;5.13;;;;;;;7.52;93.26;100315.34;5094261;28;20094;-63
2023/05/27 02:21:05;;;;;;;18.90;5.40;;;;;;;7.35;92.19;100314.81;5092902;28;20036;-64
2023/05/27 02:23:32;;;;;;;17.02;6.00;;;;;;;7.33;94.30;100306.19;5081380;28;20044;-64
2023/05/27 02:26:00;;;;;;;21.55;5.32;;;;;;;7.25;92.36;100309.81;5070098;28;20044;-63
2023/05/27 02:28:29;;;;;;;14.17;4.80;;;;;;;7.26;92.11;100305.31;5080772;28;20063;-63
2023/05/27 02:30:57;;;;;;;17.27;5.05;;;;;;;7.35;92.48;100304.16;5082389;28;20468;-64
2023/05/27 02:33:25;;;;;;;21.40;5.30;;;;;;;7.30;92.22;100307.41;5101276;28;20067;-63
2023/05/27 02:35:52;;;;;;;16.92;5.57;;;;;;;7.39;92.26;100310.75;5102183;28;20032;-63
2023/05/27 02:38:20;;;;;;;13.20;5.03;;;;;;;7.33;93.25;100300.84;5072736;28;20494;-64
2023/05/27 02:40:48;;;;;;;18.55;5.20;;;;;;;7.32;92.50;100307.22;5083060;28;20047;-64
2023/05/27 02:43:15;;;;;;;9.05;4.75;;;;;;;7.42;93.39;100306.88;5095094;28;20110;-63
2023/05/27 02:45:42;;;;;;;17.15;5.30;;;;;;;7.53;92.28;100300.97;5100293;28;20127;-64
2023/05/27 02:48:09;;;;;;;18.70;5.30;;;;;;;7.67;91.11;100293.88;5082816;28;20093;-64
2023/05/27 02:50:40;;;;;;;16.48;5.88;;;;;;;7.84;90.08;100297.03;5079936;28;20518;-64
2023/05/27 02:53:07;;;;;;;19.40;6.07;;;;;;;7.76;91.35;100295.34;5099430;28;20047;-64
2023/05/27 02:55:34;;;;;;;16.80;5.20;;;;;;;7.52;90.24;100294.00;5098876;28;20127;-64
2023/05/27 02:58:02;;;;;;;22.00;6.13;;;;;;;7.45;91.83;100293.94;5086907;28;20043;-64
2023/05/27 03:00:30;;;;;;;16.10;5.90;;;;;;;7.37;93.39;100298.63;5079242;28;20059;-62
2023/05/27 03:02:57;;;;;;;15.27;5.18;;;;;;;7.15;91.83;100297.84;5102380;28;20077;-64
2023/05/27 03:05:24;;;;;;;11.50;4.88;;;;;;;6.92;93.95;100298.91;5080379;28;20071;-64
2023/05/27 03:07:53;;;;;;;15.45;4.90;;;;;;;6.64;95.91;100299.69;5102742;28;20077;-64
2023/05/27 03:10:20;;;;;;;12.00;4.63;;;;;;;6.49;96.81;100298.94;5099930;28;20072;-64
2023/05/27 03:12:47;;;;;;;16.17;5.05;;;;;;;6.43;98.29;100299.66;5081094;28;20758;-63
2023/05/27 03:15:14;;;;;;;13.80;5.43;;;;;;;6.41;98.77;100296.38;5096693;28;20039;-64
2023/05/27 03:17:42;;;;;;;19.38;5.72;;;;;;;6.62;100.00;100304.38;5081221;28;20047;-64
2023/05/27 03:20:11;;;;;;;14.25;5.25;;;;;;;6.55;98.07;100298.16;5098086;28;20047;-63
2023/05/27 03:22:38;;;;;;;12.40;5.40;;;;;;;7.01;96.94;100300.41;5105072;28;20067;-63
2023/05/27 03:25:07;;;;;;;18.10;5.22;;;;;;;7.12;96.29;100299.88;5093715;28;20054;-63
2023/05/27 03:27:35;;;;;;;19.55;6.07;;;;;;;7.18;96.45;100292.13;5085710;28;20062;-63
2023/05/27 03:30:07;;;;;;;16.33;5.57;;;;;;;7.10;97.14;100295.75;5074242;28;20569;-64
2023/05/27 03:32:38;;;;;;;14.85;5.90;;;;;;;6.87;95.35;100301.31;5060612;28;20040;-64
2023/05/27 03:35:06;;;;;;;15.68;5.65;;;;;;;6.66;97.28;100294.16;5089578;28;20093;-63
2023/05/27 03:37:33;;;;;;;17.05;5.07;;;;;;;6.65;98.46;100292.50;5082668;28;20092;-65
2023/05/27 03:40:08;;;;;;;20.05;5.60;;;;;;;6.53;97.58;100297.50;5108191;28;20067;-64
2023/05/27 03:42:36;;;;;;;20.70;5.95;;;;;;;6.68;97.78;100302.78;5085192;28;20059;-63
2023/05/27 03:45:04;;;;;;;19.73;6.25;;;;;;;6.72;98.17;100303.25;5080540;28;20047;-64
2023/05/27 03:47:31;;;;;;;17.08;5.70;;;;;;;6.96;99.09;100291.34;5082643;28;20039;-64
2023/05/27 03:49:59;;;;;;;14.15;5.50;;;;;;;7.70;93.16;100296.16;5100053;28;20079;-62
2023/05/27 03:52:26;;;;;;;13.85;6.15;;;;;;;7.84;90.87;100292.53;5096599;28;20048;-64
2023/05/27 03:54:53;;;;;;;15.57;5.75;;;;;;;8.20;88.31;100299.44;5099181;28;20039;-64
2023/05/27 03:57:21;;;;;;;15.35;5.75;;;;;;;8.72;88.75;100297.13;5100854;28;20039;-64
2023/05/27 03:59:49;;;;;;;21.17;6.32;;;;;;;8.75;84.36;100294.03;5106193;28;20096;-64
2023/05/27 04:02:16;;;;;;;15.50;5.45;;;;;;;8.41;85.25;100294.00;5101671;28;20662;-64
2023/05/27 04:04:43;;;;;;;17.58;5.68;;;;;;;8.78;84.86;100294.44;5107825;28;20050;-62
2023/05/27 04:07:12;;;;;;;19.65;5.95;;;;;;;9.25;83.75;100292.56;5089631;28;20111;-62
2023/05/27 04:09:39;;;;;;;12.65;5.40;;;;;;;9.63;81.09;100297.22;5077515;28;20498;-62
2023/05/27 04:12:07;;;;;;;14.52;4.93;;;;;;;9.99;78.80;100290.53;5086086;28;20039;-63
2023/05/27 04:14:36;;;;;;;19.52;5.43;;;;;;;9.66;81.00;100296.84;5099165;28;20135;-63
2023/05/27 04:17:03;;;;;;;13.90;5.13;;;;;;;10.05;78.48;100295.03;5103105;28;20051;-62
2023/05/27 04:19:32;;;;;;;14.27;5.00;;;;;;;9.97;78.58;100289.91;5097870;28;20055;-62
2023/05/27 04:21:59;;;;;;;12.35;4.47;;;;;;;10.24;74.44;100297.84;5087504;28;20805;-63
2023/05/27 04:24:27;;;;;;;16.10;5.43;;;;;;;9.16;80.28;100301.88;5086236;28;20055;-63
2023/05/27 04:26:54;;;;;;;15.55;5.55;;;;;;;9.51;80.95;100298.94;5106577;28;20046;-62
2023/05/27 04:29:22;;;;;;;15.07;5.65;;;;;;;8.85;83.43;100297.94;5104284;28;20063;-63
2023/05/27 04:31:51;;;;;;;19.15;5.63;;;;;;;9.55;79.75;100299.31;5085430;28;20035;-62
2023/05/27 04:34:21;;;;;;;15.38;5.13;;;;;;;11.20;74.67;100305.63;5082701;28;20406;-63
2023/05/27 04:36:49;;;;;;;15.40;4.95;;;;;;;10.24;76.20;100303.19;5088033;28;20064;-64
2023/05/27 04:39:19;;;;;;;15.77;5.28;;;;;;;11.34;73.16;100302.84;5081237;28;20040;-63
2023/05/27 04:41:47;;;;;;;16.63;4.97;;;;;;;12.24;67.76;100311.16;5089785;28;20097;-65
2023/05/27 04:44:26;;;;;;;13.68;5.38;;;;;;;12.55;66.39;100313.84;5086323;28;20054;-62
2023/05/27 04:46:58;;;;;;;14.93;5.25;;;;;;;12.89;63.61;100306.91;5081949;28;20051;-63
2023/05/27 04:49:26;;;;;;;15.98;4.32;;;;;;;13.21;66.55;100301.22;5085408;28;20040;-63
2023/05/27 04:51:54;;;;;;;20.13;5.75;;;;;;;13.51;62.44;100310.03;5082536;28;20518;-63
2023/05/27 04:54:22;;;;;;;13.93;5.22;;;;;;;15.18;58.96;100309.97;5078637;28;20497;-63
2023/05/27 04:56:51;;;;;;;16.23;4.70;;;;;;;15.07;57.21;100317.06;5087020;28;20043;-63
2023/05/27 04:59:29;;;;;;;11.57;4.50;;;;;;;15.18;56.68;100309.16;5086692;28;20044;-63
2023/05/27 05:02:10;;;;;;;22.90;5.00;;;;;;;15.19;56.83;100305.38;5097190;28;20151;-63
2023/05/27 05:04:45;;;;;;;11.32;4.13;;;;;;;15.57;54.00;100315.38;5086304;28;20331;-63
2023/05/27 05:07:12;;;;;;;13.07;4.72;;;;;;;15.41;54.24;100316.25;5083068;28;20043;-64
2023/05/27 05:09:41;;;;;;;13.30;4.63;;;;;;;15.30;56.01;100308.00;5080266;28;20222;-63
2023/05/27 05:12:14;;;;;;;13.05;5.00;;;;;;;16.35;52.10;100315.31;5084436;28;20050;-63
2023/05/27 05:14:44;;;;;;;13.93;4.93;;;;;;;16.51;51.85;100303.56;5093142;28;20043;-64
2023/05/27 05:17:14;;;;;;;15.88;4.63;;;;;;;17.32;50.37;100309.94;5084631;28;20075;-61
2023/05/27 05:19:42;;;;;;;15.75;4.78;;;;;;;16.52;51.40;100313.31;5102263;28;20058;-64
2023/05/27 05:22:10;;;;;;;14.48;4.70;;;;;;;17.31;49.46;100311.03;5086433;28;20051;-63
2023/05/27 05:24:38;;;;;;;10.35;4.65;;;;;;;17.44;49.85;100314.09;5083493;28;20550;-63
2023/05/27 05:27:07;;;;;;;16.40;5.05;;;;;;;17.61;48.19;100313.13;5081463;28;20037;-63
2023/05/27 05:29:34;;;;;;;16.48;4.68;;;;;;;17.41;49.33;100314.63;5083347;28;20048;-63
2023/05/27 05:32:01;;;;;;;14.50;5.20;;;;;;;18.53;47.53;100314.31;5103166;28;20421;-64
2023/05/27 05:34:29;;;;;;;14.05;4.93;;;;;;;18.71;46.52;100315.69;5074179;28;20046;-62
2023/05/27 05:36:57;;;;;;;14.23;5.50;;;;;;;19.14;45.92;100310.03;5081895;28;20039;-61
2023/05/27 05:39:24;;;;;;;16.45;4.40;;;;;;;19.21;44.99;100312.47;5099755;28;20085;-61
2023/05/27 05:41:54;;;;;;;21.90;5.10;;;;;;;19.25;44.51;100311.66;5075109;28;20055;-63
2023/05/27 05:44:22;;;;;;;12.80;4.90;;;;;;;19.59;44.45;100308.31;5083695;28;20101;-61
2023/05/27 05:46:51;;;;;;;17.50;5.18;;;;;;;19.39;45.24;100315.44;5102294;28;20055;-63
2023/05/27 05:49:20;;;;;;;18.52;5.25;;;;;;;19.76;42.91;100313.47;5077094;28;20105;-61
2023/05/27 05:51:49;;;;;;;15.75;4.80;;;;;;;19.90;43.57;100321.88;5085028;28;20404;-63
2023/05/27 05:54:16;;;;;;;16.38;5.22;;;;;;;20.01;43.73;100321.53;5083657;28;20043;-63
2023/05/27 05:56:46;;;;;;;18.08;5.15;;;;;;;18.13;46.69;100319.63;5100219;28;20048;-63
2023/05/27 05:59:13;;;;;;;19.17;5.38;;;;;;;18.85;47.04;100315.22;5079179;28;20113;-63
2023/05/27 06:01:40;;;;;;;16.98;5.10;;;;;;;19.74;45.09;100321.09;5081693;28;20386;-63
2023/05/27 06:04:08;;;;;;;15.20;5.63;;;;;;;21.22;41.75;100319.44;5085659;28;20047;-63
2023/05/27 06:06:39;;;;;;;15.32;5.22;;;;;;;20.61;42.31;100323.44;5098005;28;20047;-63
2023/05/27 06:09:28;;;;;;;13.23;5.03;;;;;;;21.47;42.40;100318.41;5094430;28;20071;-63
2023/05/27 06:11:59;;;;;;;18.63;5.80;;;;;;;20.21;42.81;100314.38;5080382;27;20098;-61
2023/05/27 06:14:26;;;;;;;18.02;5.40;;;;;;;19.51;44.93;100309.69;5080322;28;20136;-61
2023/05/27 06:16:57;;;;;;;23.50;5.28;;;;;;;20.74;43.03;100314.63;5082630;28;20040;-61
2023/05/27 06:19:25;;;;;;;17.65;5.57;;;;;;;19.78;45.22;100322.19;5072309;28;20558;-63
2023/05/27 06:21:52;;;;;;;13.00;4.80;;;;;;;20.33;44.23;100317.56;5078611;28;20043;-63
2023/05/27 06:24:39;;;;;;;13.20;5.38;;;;;;;22.43;41.29;100310.13;5100156;28;20399;-62
2023/05/27 06:27:15;;;;;;;16.48;5.72;;;;;;;21.30;42.83;100319.59;5078649;28;20109;-61
2023/05/27 06:29:44;;;;;;;16.63;5.70;;;;;;;20.70;43.60;100313.56;5084979;28;20122;-62
2023/05/27 06:32:11;;;;;;;;;;;;;;;21.88;42.46;100313.28;5080343;28;20130;-62
2023/05/27 06:34:38;;;;;;;15.02;5.35;;;;;;;22.36;41.96;100313.22;5084364;28;20022;-62
2023/05/27 06:37:07;;;;;;;12.15;5.07;;;;;;;22.47;40.59;100313.91;5078393;28;20388;-63
2023/05/27 06:39:34;;;;;;;17.77;5.40;;;;;;;22.11;41.26;100305.34;5085121;28;20067;-62
2023/05/27 06:42:03;;;;;;;14.75;4.95;;;;;;;22.76;40.35;100299.25;5100240;28;20584;-63
2023/05/27 06:44:46;;;;;;;18.10;4.90;;;;;;;21.49;42.34;100302.53;5087475;28;20119;-63
2023/05/27 06:47:18;;;;;;;17.17;5.90;;;;;;;22.72;40.79;100300.97;5080763;28;20048;-63
2023/05/27 06:49:46;;;;;;;21.23;6.15;;;;;;;23.98;38.87;100295.44;5082210;28;20048;-63
2023/05/27 06:52:13;;;;;;;19.30;5.15;;;;;;;24.15;39.16;100303.84;5098074;28;20040;-62
2023/05/27 06:54:56;;;;;;;16.15;5.07;;;;;;;23.32;38.62;100292.88;5080944;28;20558;-62
2023/05/27 06:58:03;;;;;;;15.60;5.40;;;;;;;22.36;39.72;100301.50;5075884;28;20048;-62
2023/05/27 07:00:45;;;;;;;15.60;5.05;;;;;;;22.05;41.95;100310.06;5074123;28;20468;-63
2023/05/27 07:03:26;;;;;;;16.23;5.25;;;;;;;21.75;42.65;100301.16;5099214;28;20040;-62
2023/05/27 07:05:54;;;;;;;15.35;5.13;;;;;;;23.32;39.67;100303.00;5087741;28;20046;-62
2023/05/27 07:08:22;;;;;;;13.85;5.05;;;;;;;22.34;40.45;100295.50;5079128;28;20044;-62
2023/05/27 07:10:59;;;;;;;16.88;5.38;;;;;;;23.34;40.25;100300.75;5081663;28;20043;-62
2023/05/27 07:13:28;;;;;;;18.73;5.20;;;;;;;23.41;39.14;100307.47;5082183;28;20035;-62
2023/05/27 07:15:55;;;;;;;13.80;4.72;;;;;;;22.38;40.89;100299.28;5082197;28;20055;-62
2023/05/27 07:18:22;;;;;;;17.15;5.38;;;;;;;22.80;39.96;100292.09;5085756;28;20055;-62
2023/05/27 07:20:51;;;;;;;14.75;5.47;;;;;;;22.17;40.37;100299.53;5088228;28;20040;-62
2023/05/27 07:23:19;;;;;;;17.88;5.10;;;;;;;22.15;41.66;100293.56;5087381;28;20436;-62
2023/05/27 07:25:53;;;;;;;18.63;5.50;;;;;;;21.73;41.18;100300.63;5085578;28;20127;-62
2023/05/27 07:28:22;;;;;;;16.42;5.45;;;;;;;21.90;42.53;100299.34;5085268;28;20043;-62
2023/05/27 07:30:55;;;;;;;18.10;5.15;;;;;;;21.65;41.96;100301.28;5081843;28;20066;-62
2023/05/27 07:33:22;;;;;;;18.70;5.60;;;;;;;20.90;41.80;100296.25;5084090;28;20498;-62
2023/05/27 07:35:49;;;;;;;19.83;5.32;;;;;;;22.23;40.05;100292.13;5083196;28;20043;-62
2023/05/27 07:38:17;;;;;;;19.25;5.32;;;;;;;20.00;43.16;100287.25;5082152;28;20063;-63
2023/05/27 07:40:45;;;;;;;18.52;5.05;;;;;;;20.47;42.58;100285.91;5082177;28;20043;-62
2023/05/27 07:43:13;;;;;;;20.30;5.43;;;;;;;21.16;42.35;100291.38;5082583;28;20097;-64
2023/05/27 07:45:40;;;;;;;21.65;5.53;;;;;;;20.86;42.14;100287.81;5082474;28;20112;-62
2023/05/27 07:48:08;;;;;;;16.23;5.30;;;;;;;21.62;40.65;100285.50;5082987;28;20397;-62
2023/05/27 07:50:35;;;;;;;15.60;5.10;;;;;;;22.25;39.51;100276.25;5081443;28;20074;-63
2023/05/27 07:53:08;;;;;;;14.68;5.22;;;;;;;23.10;38.77;100265.38;5089404;28;20542;-62
2023/05/27 07:55:37;;;;;;;17.45;5.65;;;;;;;20.66;41.68;100274.38;5089251;28;20067;-62
2023/05/27 07:58:05;;;;;;;13.65;5.22;;;;;;;22.30;39.80;100270.72;5084528;28;20039;-62
2023/05/27 08:00:46;;;;;;;18.02;4.82;;;;;;;21.89;39.84;100270.41;5087355;28;20048;-62
2023/05/27 08:03:15;;;;;;;15.77;4.93;;;;;;;21.05;42.39;100268.06;5100425;28;20124;-62
2023/05/27 08:05:57;;;;;;;20.52;4.85;;;;;;;21.62;40.54;100266.41;5085538;28;20118;-62
2023/05/27 08:08:47;;;;;;;17.98;4.93;;;;;;;20.23;42.58;100252.31;5083593;28;20570;-61
2023/05/27 08:11:36;;;;;;;11.57;4.28;;;;;;;19.46;43.16;100255.34;5087249;28;20719;-63
2023/05/27 08:14:21;;;;;;;18.10;4.78;;;;;;;19.26;45.43;100244.53;5102228;28;20148;-63
2023/05/27 08:17:17;;;;;;;17.77;4.82;;;;;;;19.51;43.58;100247.16;5084579;28;20399;-63
2023/05/27 08:20:08;;;;;;;20.45;5.45;;;;;;;19.84;44.35;100234.00;5102725;28;20089;-62
2023/05/27 08:22:56;;;;;;;14.93;4.78;;;;;;;19.80;44.31;100227.50;5097013;28;20105;-63
2023/05/27 08:25:33;;;;;;;17.58;4.75;;;;;;;21.13;42.39;100240.16;5103929;28;20406;-63
2023/05/27 08:28:36;;;;;;;16.02;4.82;;;;;;;20.74;42.45;100222.00;5083693;28;20138;-63
2023/05/27 08:31:22;;;;;;;22.13;5.20;;;;;;;19.86;44.62;100231.03;5104455;28;20393;-63
2023/05/27 08:33:57;;;;;;;15.50;4.65;;;;;;;20.46;42.77;100218.91;5083470;28;20387;-62
2023/05/27 08:36:26;;;;;;;15.60;4.75;;;;;;;21.48;41.39;100216.38;5082450;28;20040;-62
2023/05/27 08:38:57;;;;;;;15.80;4.97;;;;;;;20.74;42.70;100219.28;5089180;28;20105;-62
2023/05/27 08:41:32;;;;;;;16.70;4.43;;;;;;;20.26;42.66;100224.53;5079964;28;20044;-63
2023/05/27 08:44:01;;;;;;;11.13;4.35;;;;;;;19.80;43.97;100219.34;5083876;28;20382;-63
2023/05/27 08:46:28;;;;;;;17.70;5.07;;;;;;;19.50;45.31;100218.34;5079703;28;20059;-62
2023/05/27 08:48:56;;;;;;;16.63;5.18;;;;;;;19.42;45.08;100215.38;5101182;27;20063;-62
2023/05/27 08:51:23;;;;;;;18.70;4.97;;;;;;;18.96;45.50;100206.25;5086876;28;20036;-62
2023/05/27 08:53:51;;;;;;;20.35;5.53;;;;;;;19.54;45.36;100203.09;5105425;28;20486;-62
2023/05/27 08:56:21;;;;;;;20.73;5.97;;;;;;;19.03;46.63;100203.28;5077837;28;20047;-62
2023/05/27 08:58:48;;;;;;;19.33;5.03;;;;;;;19.61;46.27;100198.19;5078854;28;20040;-62
2023/05/27 09:01:17;;;;;;;22.27;5.63;;;;;;;19.40;45.22;100199.38;5077825;28;20481;-62
2023/05/27 09:03:44;;;;;;;15.68;4.70;;;;;;;20.08;44.47;100196.06;5088549;28;20498;-62
2023/05/27 09:06:11;;;;;;;14.90;4.97;;;;;;;18.76;46.67;100200.84;5099946;28;20128;-62
2023/05/27 09:08:39;;;;;;;17.92;5.35;;;;;;;20.51;43.06;100187.31;5101547;28;20494;-62
2023/05/27 09:11:08;;;;;;;17.73;4.90;;;;;;;20.39;42.95;100191.22;5103387;28;20059;-62
2023/05/27 09:13:35;;;;;;;13.98;4.65;;;;;;;19.61;44.40;100179.16;5076107;28;20402;-62
2023/05/27 09:16:03;;;;;;;18.63;5.78;;;;;;;20.17;43.79;100185.41;5100717;28;20085;-62
2023/05/27 09:18:30;;;;;;;18.30;4.88;;;;;;;20.35;43.01;100182.00;5103877;28;20054;-62
2023/05/27 09:21:00;;;;;;;20.42;5.07;;;;;;;21.16;43.05;100181.53;5106625;28;20042;-62
2023/05/27 09:23:27;;;;;;;15.57;4.85;;;;;;;20.89;41.47;100178.28;5096010;28;20122;-62
2023/05/27 09:25:55;;;;;;;20.02;4.82;;;;;;;20.59;43.77;100173.94;5095690;28;20039;-62
2023/05/27 09:28:24;;;;;;;20.02;4.72;;;;;;;21.58;42.58;100172.59;5092730;28;20741;-63
2023/05/27 09:31:01;;;;;;;18.05;4.97;;;;;;;21.97;41.16;100177.00;5098129;28;20293;-63
2023/05/27 09:33:28;;;;;;;21.73;5.43;;;;;;;20.65;42.18;100182.88;5087658;28;20047;-63
2023/05/27 09:35:55;;;;;;;14.75;4.63;;;;;;;21.68;42.91;100167.00;5092093;28;20066;-63
2023/05/27 09:38:22;;;;;;;18.45;4.60;;;;;;;22.25;41.34;100168.97;5106078;28;20543;-62
2023/05/27 09:40:49;;;;;;;18.13;4.85;;;;;;;22.86;39.90;100173.38;5100436;28;20069;-62
2023/05/27 09:43:16;;;;;;;15.25;4.57;;;;;;;22.95;39.40;100168.84;5081648;28;20473;-62
2023/05/27 09:45:45;;;;;;;17.42;4.80;;;;;;;22.90;39.64;100162.66;5098877;28;20140;-62
2023/05/27 09:48:13;;;;;;;18.27;4.40;;;;;;;22.15;41.11;100165.25;5088658;28;20497;-63
2023/05/27 09:50:41;;;;;;;16.38;5.10;;;;;;;23.06;39.07;100165.94;5104461;28;20064;-60
2023/05/27 09:53:08;;;;;;;16.95;4.90;;;;;;;22.21;40.05;100157.00;5094751;28;20040;-63
2023/05/27 09:55:35;;;;;;;18.45;5.20;;;;;;;22.83;39.25;100152.91;5103156;28;20040;-62
2023/05/27 09:58:02;;;;;;;14.55;4.63;;;;;;;22.99;39.10;100144.47;5105547;28;20569;-63
2023/05/27 10:00:31;;;;;;;14.82;4.30;;;;;;;22.93;39.53;100151.91;5093897;28;20132;-61
2023/05/27 10:03:00;;;;;;;16.83;4.60;;;;;;;21.40;39.88;100154.31;5097338;28;20040;-63
2023/05/27 10:05:27;;;;;;;16.00;4.65;;;;;;;20.33;41.97;100148.78;5098445;28;20048;-63
2023/05/27 10:07:54;;;;;;;18.38;4.90;;;;;;;21.01;42.38;100136.19;5093734;28;20143;-63
2023/05/27 10:10:22;;;;;;;15.30;4.15;;;;;;;20.70;41.63;100133.78;5091684;28;20040;-61
2023/05/27 10:12:51;;;;;;;18.42;4.53;;;;;;;21.05;40.45;100124.41;5093246;28;20493;-61
2023/05/27 10:15:28;;;;;;;17.37;5.00;;;;;;;21.33;40.25;100124.63;5101189;28;20051;-61
2023/05/27 10:17:56;;;;;;;22.13;4.50;;;;;;;20.61;40.31;100127.34;5098878;28;20522;-63
2023/05/27 10:20:32;;;;;;;16.38;4.25;;;;;;;20.81;41.33;100110.78;5081658;28;20044;-63
2023/05/27 10:23:10;;;;;;;16.17;4.32;;;;;;;21.06;40.36;100119.78;5089457;28;20060;-63
2023/05/27 10:25:38;;;;;;;15.77;4.30;;;;;;;21.59;40.26;100108.78;5103284;28;20454;-61
2023/05/27 10:28:05;;;;;;;16.33;4.28;;;;;;;21.36;39.71;100099.50;5105299;28;20042;-62
2023/05/27 10:30:42;;;;;;;20.38;5.22;;;;;;;20.85;40.11;100098.22;5098891;28;20050;-62
2023/05/27 10:33:09;;;;;;;17.48;4.53;;;;;;;20.89;40.70;100096.53;5101260;28;20127;-64
2023/05/27 10:35:41;;;;;;;15.82;4.43;;;;;;;20.71;40.12;100105.44;5091995;28;20054;-62
2023/05/27 10:38:16;;;;;;;16.95;4.13;;;;;;;20.65;40.60;100091.06;5093398;28;20078;-63
2023/05/27 10:40:43;;;;;;;11.75;3.95;;;;;;;20.79;40.66;100091.22;5099893;28;20601;-62
2023/05/27 10:43:16;;;;;;;16.45;4.47;;;;;;;20.68;40.80;100106.84;5097104;28;20066;-63
2023/05/27 10:45:43;;;;;;;14.75;4.13;;;;;;;20.65;40.75;100093.00;5103755;28;20136;-63
2023/05/27 10:48:16;;;;;;;13.32;4.10;;;;;;;20.84;39.89;100082.97;5100529;28;20071;-62
2023/05/27 10:50:52;;;;;;;13.32;3.80;;;;;;;20.84;39.99;100088.44;5104553;28;20505;-63
2023/05/27 10:53:20;;;;;;;19.00;4.10;;;;;;;20.75;38.89;100090.16;5097879;28;20047;-63
2023/05/27 10:55:48;;;;;;;14.40;4.10;;;;;;;20.39;40.26;100076.88;5095286;28;20113;-63
2023/05/27 10:58:16;;;;;;;14.40;4.03;;;;;;;20.97;40.76;100080.66;5097785;28;20044;-62
2023/05/27 11:00:43;;;;;;;18.38;4.10;;;;;;;20.51;40.24;100084.66;5097555;28;20050;-63
2023/05/27 11:03:17;;;;;;;13.27;4.90;;;;;;;20.26;39.86;100083.78;5098281;28;20040;-61
2023/05/27 11:05:44;;;;;;;14.38;4.05;;;;;;;20.41;40.33;100071.94;5093027;28;20067;-63
2023/05/27 11:08:14;;;;;;;12.25;3.88;;;;;;;20.54;39.10;100080.53;5098030;28;20139;-60
2023/05/27 11:10:42;;;;;;;15.70;4.32;;;;;;;20.64;39.16;100066.84;5097964;28;20117;-63
2023/05/27 11:13:09;;;;;;;16.70;4.45;;;;;;;20.53;39.88;100065.31;5074342;28;20056;-61
2023/05/27 11:15:40;;;;;;;17.65;4.90;;;;;;;21.10;38.45;100063.59;5104583;28;20062;-61
2023/05/27 11:18:08;;;;;;;13.85;4.10;;;;;;;20.99;39.37;100053.91;5100780;28;20134;-61
2023/05/27 11:20:36;;;;;;;14.55;3.85;;;;;;;20.42;40.06;100062.69;5101143;28;20042;-61
2023/05/27 11:23:03;;;;;;;13.15;3.88;;;;;;;20.56;39.70;100059.31;5094315;28;20051;-62
2023/05/27 11:25:42;;;;;;;15.05;4.22;;;;;;;20.73;40.98;100047.97;5092545;28;20058;-62
2023/05/27 11:28:14;;;;;;;12.40;4.03;;;;;;;21.07;39.74;100036.94;5100027;28;20043;-62
2023/05/27 11:30:41;;;;;;;20.10;4.60;;;;;;;21.20;40.43;100047.09;5096662;28;20040;-61
2023/05/27 11:33:08;;;;;;;15.50;4.20;;;;;;;21.00;39.87;100037.28;5084265;28;20040;-61